Time;durP1;ratioP1;P1;durP2;ratioP2;P2;SDS_P1;SDS_P2;PMS_P1;PMS_P2;Temp;Humidity;BMP_temperature;BMP_pressure;BME280_temperature;BME280_humidity;BME280_pressure;Samples;Min_cycle;Max_cycle;Signal;HPM_P1;HPM_P2
2021/05/11 00:02:15;;;;;;;1.00;0.80;;;16.80;72.00;;;;;;5051829;28;20056;-48
2021/05/11 00:04:41;;;;;;;2.58;1.13;;;16.70;72.00;;;;;;5055109;28;20045;-49
2021/05/11 00:07:07;;;;;;;0.57;0.57;;;16.70;72.00;;;;;;5056127;28;20056;-48
2021/05/11 00:09:32;;;;;;;1.38;1.02;;;16.70;72.00;;;;;;5055339;28;20052;-48
2021/05/11 00:11:59;;;;;;;1.08;0.90;;;16.70;72.00;;;;;;5055461;28;20343;-51
2021/05/11 00:14:24;;;;;;;2.17;1.20;;;16.70;72.00;;;;;;5054943;28;20051;-48
2021/05/11 00:16:50;;;;;;;1.10;1.00;;;16.70;72.00;;;;;;5055273;28;20517;-49
2021/05/11 00:19:17;;;;;;;2.00;1.30;;;16.70;72.00;;;;;;5055031;28;20448;-47
2021/05/11 00:21:42;;;;;;;0.93;0.80;;;16.80;72.00;;;;;;5055381;28;20128;-49
2021/05/11 00:24:09;;;;;;;1.27;1.10;;;16.70;72.00;;;;;;5055082;28;20484;-48
2021/05/11 00:26:37;;;;;;;2.25;1.17;;;16.70;72.00;;;;;;5055180;28;20049;-46
2021/05/11 00:29:04;;;;;;;1.00;0.60;;;16.80;72.10;;;;;;5054706;28;20055;-48
2021/05/11 00:31:30;;;;;;;1.25;1.10;;;16.70;72.00;;;;;;5054874;28;20151;-49
2021/05/11 00:33:57;;;;;;;1.65;1.13;;;16.70;72.00;;;;;;5054703;28;20542;-48
2021/05/11 00:36:24;;;;;;;1.30;0.90;;;16.70;72.00;;;;;;5054905;28;20056;-46
2021/05/11 00:38:49;;;;;;;1.98;0.90;;;16.60;71.90;;;;;;5055008;28;20055;-49
2021/05/11 00:41:15;;;;;;;1.75;1.08;;;16.70;72.00;;;;;;5054624;28;20056;-49
2021/05/11 00:43:45;;;;;;;2.78;1.38;;;16.70;72.00;;;;;;5054804;28;20045;-49
2021/05/11 00:46:13;;;;;;;1.50;0.82;;;16.70;72.00;;;;;;5054443;28;20040;-48
2021/05/11 00:48:39;;;;;;;1.25;0.85;;;16.70;72.00;;;;;;5054643;28;20045;-50
2021/05/11 00:51:06;;;;;;;1.08;0.90;;;16.70;71.90;;;;;;5054800;28;20075;-49
2021/05/11 00:53:33;;;;;;;1.45;0.93;;;16.70;72.00;;;;;;5054786;28;20103;-49
2021/05/11 00:56:00;;;;;;;1.23;0.80;;;16.80;72.00;;;;;;5054725;28;20065;-49
2021/05/11 00:58:26;;;;;;;0.98;0.93;;;16.70;72.00;;;;;;5054531;28;20051;-47
2021/05/11 01:00:52;;;;;;;0.93;0.80;;;16.70;72.00;;;;;;5054173;28;20049;-49
2021/05/11 01:03:18;;;;;;;1.48;0.88;;;16.70;72.00;;;;;;5054112;28;20394;-46
2021/05/11 01:05:44;;;;;;;1.23;1.02;;;16.70;72.00;;;;;;5054357;28;20049;-48
2021/05/11 01:08:10;;;;;;;1.33;1.00;;;16.60;72.00;;;;;;5054450;28;20077;-48
2021/05/11 01:10:37;;;;;;;1.00;0.90;;;16.70;72.00;;;;;;5054301;28;20045;-45
2021/05/11 01:13:03;;;;;;;0.73;0.73;;;16.80;72.00;;;;;;5054237;28;20060;-45
2021/05/11 01:15:30;;;;;;;1.13;0.90;;;16.70;71.90;;;;;;5053807;28;20049;-47
2021/05/11 01:18:06;;;;;;;1.02;0.90;;;16.70;72.60;;;;;;5054114;28;20048;-47
2021/05/11 01:20:40;;;;;;;0.93;0.75;;;16.70;72.00;;;;;;5054266;28;20057;-49
2021/05/11 01:25:32;;;;;;;1.98;0.95;;;16.70;72.00;;;;;;5054194;28;20049;-48
2021/05/11 01:43:58;;;;;;;1.13;0.90;;;16.60;72.00;;;;;;5053930;28;20442;-47
2021/05/11 01:55:18;;;;;;;1.38;0.90;;;16.60;72.00;;;;;;5053714;28;20114;-50
2021/05/11 02:24:38;;;;;;;1.33;0.98;;;16.70;72.10;;;;;;5052935;28;20447;-47
2021/05/11 02:27:05;;;;;;;1.20;0.98;;;16.60;72.00;;;;;;5052418;28;20078;-50
2021/05/11 02:29:30;;;;;;;2.00;0.80;;;16.60;72.00;;;;;;5052827;28;20412;-48
2021/05/11 02:31:56;;;;;;;0.98;0.80;;;16.60;72.10;;;;;;5052817;28;20048;-50
2021/05/11 02:34:22;;;;;;;1.40;1.00;;;16.60;72.10;;;;;;5052544;28;20084;-45
2021/05/11 02:36:48;;;;;;;1.20;1.10;;;16.60;72.10;;;;;;5052858;28;20546;-45
2021/05/11 02:39:13;;;;;;;1.25;0.95;;;16.60;72.10;;;;;;5052595;28;20151;-46
2021/05/11 02:41:42;;;;;;;0.85;0.80;;;16.60;72.10;;;;;;5052623;28;20425;-45
2021/05/11 02:44:08;;;;;;;2.42;0.95;;;16.60;72.10;;;;;;5052308;28;20045;-45
2021/05/11 02:46:34;;;;;;;0.80;0.80;;;16.60;72.10;;;;;;5052478;28;20045;-46
2021/05/11 02:49:00;;;;;;;0.80;0.80;;;16.60;72.10;;;;;;5052382;28;20057;-44
2021/05/11 02:51:26;;;;;;;0.60;0.60;;;16.60;72.10;;;;;;5052390;28;20049;-46
2021/05/11 02:53:51;;;;;;;2.03;1.00;;;16.60;72.10;;;;;;5052373;28;20048;-45
2021/05/11 02:56:17;;;;;;;1.40;0.95;;;16.60;72.10;;;;;;5052303;28;20071;-45
2021/05/11 02:58:43;;;;;;;2.67;1.17;;;16.60;72.10;;;;;;5033576;28;20137;-44
2021/05/11 03:01:09;;;;;;;2.08;1.17;;;16.60;72.10;;;;;;5052320;28;20045;-46
2021/05/11 03:03:37;;;;;;;2.60;1.00;;;16.60;72.10;;;;;;5052086;28;20102;-48
2021/05/11 03:06:04;;;;;;;1.23;0.90;;;16.60;72.10;;;;;;5052240;28;20791;-45
2021/05/11 03:08:30;;;;;;;1.25;0.93;;;16.60;72.10;;;;;;5052312;28;20053;-48
2021/05/11 03:10:55;;;;;;;1.77;1.00;;;16.60;72.10;;;;;;5052178;28;20099;-49
2021/05/11 03:13:21;;;;;;;2.40;1.45;;;16.60;72.20;;;;;;5051968;28;20516;-47
2021/05/11 03:15:47;;;;;;;1.63;1.20;;;16.60;72.20;;;;;;5051986;28;20087;-47
2021/05/11 03:18:18;;;;;;;1.73;1.17;;;16.60;72.20;;;;;;5052376;28;20045;-49
2021/05/11 03:20:44;;;;;;;3.65;1.40;;;16.60;72.20;;;;;;5051835;28;20481;-49
2021/05/11 03:23:09;;;;;;;1.65;1.13;;;16.60;72.20;;;;;;5052214;28;20489;-49
2021/05/11 03:25:35;;;;;;;1.55;1.40;;;16.60;72.20;;;;;;5052110;28;20100;-48
2021/05/11 03:28:01;;;;;;;1.08;1.00;;;16.60;72.20;;;;;;5051737;28;20056;-49
2021/05/11 03:30:27;;;;;;;1.65;1.13;;;16.60;72.20;;;;;;5051962;28;20060;-49
2021/05/11 03:32:52;;;;;;;2.50;1.20;;;16.60;72.20;;;;;;5052032;28;20485;-46
2021/05/11 03:35:18;;;;;;;1.70;1.33;;;16.60;72.20;;;;;;5051715;28;20048;-49
2021/05/11 03:37:44;;;;;;;1.65;1.23;;;16.60;72.20;;;;;;5052040;28;20045;-46
2021/05/11 03:40:10;;;;;;;1.20;1.10;;;16.60;72.20;;;;;;5055751;28;20065;-48
2021/05/11 03:42:40;;;;;;;3.10;1.35;;;16.60;72.20;;;;;;5055810;28;20045;-45
2021/05/11 03:45:08;;;;;;;1.98;1.40;;;16.60;72.20;;;;;;5055674;28;20060;-48
2021/05/11 03:47:44;;;;;;;1.60;1.40;;;16.60;72.20;;;;;;5055775;28;20513;-49
2021/05/11 03:50:14;;;;;;;1.95;1.25;;;16.60;72.20;;;;;;5055469;28;20045;-48
2021/05/11 03:52:42;;;;;;;2.50;1.25;;;16.60;72.20;;;;;;5055663;28;20048;-47
2021/05/11 03:55:09;;;;;;;1.75;1.17;;;16.60;72.20;;;;;;5055565;28;20128;-48
2021/05/11 03:57:35;;;;;;;1.67;1.25;;;16.60;72.20;;;;;;5055531;28;20515;-48
2021/05/11 04:00:04;;;;;;;3.20;1.48;;;16.60;72.20;;;;;;5055751;28;20060;-49
2021/05/11 04:02:30;;;;;;;1.35;1.10;;;16.60;72.20;;;;;;5055684;28;20056;-49
2021/05/11 04:04:55;;;;;;;1.23;1.13;;;16.60;72.20;;;;;;5055467;28;20122;-48
2021/05/11 04:07:21;;;;;;;1.50;1.40;;;16.60;72.20;;;;;;5055345;28;20408;-45
2021/05/11 04:09:58;;;;;;;1.05;1.02;;;16.60;72.20;;;;;;5055426;28;20091;-45
2021/05/11 04:12:52;;;;;;;2.85;1.48;;;16.70;72.30;;;;;;5055010;28;20041;-49
2021/05/11 04:18:03;;;;;;;1.35;1.15;;;16.50;72.20;;;;;;5055046;28;20059;-48
2021/05/11 04:20:29;;;;;;;2.63;1.40;;;16.50;72.20;;;;;;5054364;28;20140;-48
2021/05/11 04:22:54;;;;;;;2.20;1.40;;;16.50;72.20;;;;;;5054921;28;20048;-49
2021/05/11 04:25:20;;;;;;;1.40;1.30;;;16.50;72.20;;;;;;5055641;28;20122;-50
2021/05/11 04:27:46;;;;;;;1.88;1.20;;;16.60;72.30;;;;;;5055625;28;20076;-50
2021/05/11 04:30:13;;;;;;;1.60;1.50;;;16.50;72.20;;;;;;5055325;28;20496;-46
2021/05/11 04:32:38;;;;;;;1.45;1.25;;;16.60;72.20;;;;;;5055101;28;20603;-46
2021/05/11 04:35:05;;;;;;;2.00;1.30;;;16.50;72.20;;;;;;5055034;28;20108;-45
2021/05/11 04:37:30;;;;;;;1.77;1.35;;;16.60;72.30;;;;;;5054498;28;20083;-46
2021/05/11 04:39:56;;;;;;;1.48;1.38;;;16.60;72.30;;;;;;5054731;28;20080;-49
2021/05/11 04:42:22;;;;;;;1.88;1.50;;;16.60;72.30;;;;;;5054980;28;20049;-47
2021/05/11 04:44:49;;;;;;;2.13;1.20;;;16.60;72.30;;;;;;5054919;28;20082;-45
2021/05/11 04:47:19;;;;;;;1.30;1.20;;;16.60;72.30;;;;;;5054797;28;20063;-47
2021/05/11 04:49:44;;;;;;;1.40;1.30;;;16.50;72.20;;;;;;5054231;28;20049;-46
2021/05/11 04:52:10;;;;;;;1.75;1.50;;;16.50;72.20;;;;;;5053843;28;20049;-44
2021/05/11 04:54:36;;;;;;;2.50;1.40;;;16.60;72.30;;;;;;5054627;28;20064;-45
2021/05/11 04:57:02;;;;;;;2.15;1.42;;;16.50;72.20;;;;;;5054456;28;20049;-50
2021/05/11 04:59:27;;;;;;;1.92;1.60;;;16.50;72.20;;;;;;5054501;28;20052;-45
2021/05/11 05:01:56;;;;;;;1.73;1.45;;;16.50;72.20;;;;;;5054524;28;20074;-46
2021/05/11 05:04:21;;;;;;;1.85;1.30;;;16.50;72.20;;;;;;5036852;28;20048;-47
2021/05/11 05:06:47;;;;;;;1.83;1.25;;;16.60;72.30;;;;;;5053811;28;20072;-47
2021/05/11 05:09:13;;;;;;;1.30;1.20;;;16.60;72.30;;;;;;5054060;28;20063;-46
2021/05/11 05:11:42;;;;;;;1.85;1.50;;;16.60;72.30;;;;;;5054114;28;20079;-45
2021/05/11 05:14:08;;;;;;;1.98;1.30;;;16.60;72.30;;;;;;5054172;28;20076;-51
2021/05/11 05:16:35;;;;;;;1.52;1.30;;;16.60;72.30;;;;;;5054164;28;20102;-47
2021/05/11 05:19:05;;;;;;;2.90;1.40;;;16.50;72.30;;;;;;5053959;28;20060;-47
2021/05/11 05:21:31;;;;;;;1.52;1.35;;;16.50;72.20;;;;;;5053940;28;20407;-42
2021/05/11 05:24:12;;;;;;;1.20;1.10;;;16.50;72.30;;;;;;5053791;28;20049;-49
2021/05/11 05:26:38;;;;;;;1.67;1.40;;;16.50;72.30;;;;;;5054227;28;20041;-45
2021/05/11 05:29:04;;;;;;;2.25;1.42;;;16.50;72.30;;;;;;5053891;28;20052;-47
2021/05/11 05:31:30;;;;;;;1.45;1.20;;;16.50;72.30;;;;;;5053377;28;20045;-45
2021/05/11 05:33:56;;;;;;;1.80;1.50;;;16.50;72.30;;;;;;5053600;28;20045;-46
2021/05/11 05:36:23;;;;;;;1.58;1.10;;;16.60;72.40;;;;;;5053568;28;20079;-48
2021/05/11 05:38:49;;;;;;;1.58;1.48;;;16.50;72.30;;;;;;5053431;28;20073;-49
2021/05/11 05:41:23;;;;;;;1.67;1.38;;;16.50;72.30;;;;;;5053428;28;20400;-48
2021/05/11 05:43:50;;;;;;;1.75;1.13;;;16.60;72.40;;;;;;5053668;28;20477;-46
2021/05/11 05:46:17;;;;;;;1.65;1.48;;;16.60;72.40;;;;;;5053563;28;20074;-51
2021/05/11 05:48:47;;;;;;;2.20;1.30;;;16.50;72.30;;;;;;5053319;28;20151;-51
2021/05/11 05:51:19;;;;;;;2.03;1.52;;;16.50;72.30;;;;;;5053015;28;20139;-45
2021/05/11 05:53:51;;;;;;;2.38;1.80;;;16.60;72.40;;;;;;5053225;28;20053;-47
2021/05/11 05:56:18;;;;;;;1.40;1.30;;;16.50;72.30;;;;;;5053370;28;20098;-50
2021/05/11 05:58:50;;;;;;;2.28;1.42;;;16.50;72.40;;;;;;5035259;28;20664;-49
2021/05/11 06:01:18;;;;;;;2.10;1.52;;;16.50;72.30;;;;;;5052263;28;20045;-48
2021/05/11 06:04:05;;;;;;;1.83;1.23;;;16.50;72.30;;;;;;5053182;28;20387;-47
2021/05/11 06:06:49;;;;;;;1.88;1.55;;;16.50;72.30;;;;;;5052985;28;20056;-51
2021/05/11 06:09:20;;;;;;;2.38;1.70;;;16.50;72.30;;;;;;5052940;28;20099;-50
2021/05/11 06:11:54;;;;;;;1.40;1.30;;;16.50;72.40;;;;;;5053024;28;20052;-52
2021/05/11 06:19:45;;;;;;;1.90;1.42;;;16.50;72.30;;;;;;5052994;28;20428;-45
2021/05/11 06:22:12;;;;;;;1.73;1.40;;;16.50;72.30;;;;;;5053249;28;20045;-49
2021/05/11 06:24:39;;;;;;;1.60;1.38;;;16.50;72.40;;;;;;5052905;28;20154;-47
2021/05/11 06:27:06;;;;;;;1.75;1.63;;;16.60;72.40;;;;;;5052934;28;20493;-47
2021/05/11 06:29:35;;;;;;;1.70;1.50;;;16.50;72.40;;;;;;5052784;28;20056;-46
2021/05/11 06:32:02;;;;;;;2.92;1.70;;;16.50;72.40;;;;;;5052702;28;20076;-46
2021/05/11 06:34:30;;;;;;;1.50;1.40;;;16.50;72.40;;;;;;5052916;28;20105;-47
2021/05/11 06:36:58;;;;;;;2.30;1.58;;;16.60;72.50;;;;;;5052843;28;20045;-49
2021/05/11 06:39:25;;;;;;;2.03;1.40;;;16.50;72.40;;;;;;5052117;28;20048;-47
2021/05/11 06:41:54;;;;;;;1.70;1.58;;;16.50;72.40;;;;;;5052855;28;20052;-48
2021/05/11 06:44:31;;;;;;;1.90;1.70;;;16.50;72.40;;;;;;5052578;28;20048;-49
2021/05/11 06:55:07;;;;;;;1.42;1.25;;;16.50;72.40;;;;;;5052183;28;20638;-50
2021/05/11 06:57:33;;;;;;;1.65;1.50;;;16.50;72.40;;;;;;5052280;28;20106;-45
2021/05/11 06:59:59;;;;;;;1.52;1.40;;;16.60;72.50;;;;;;5033723;28;20049;-48
2021/05/11 07:02:24;;;;;;;1.85;1.13;;;16.50;72.40;;;;;;5034287;28;20048;-49
2021/05/11 07:04:53;;;;;;;2.28;1.48;;;16.50;72.40;;;;;;5045171;28;20048;-44
2021/05/11 07:07:20;;;;;;;2.72;1.38;;;16.50;72.40;;;;;;5032252;28;20053;-44
2021/05/11 07:10:27;;;;;;;1.90;1.60;;;16.60;72.50;;;;;;5041581;28;20052;-47
2021/05/11 07:15:25;;;;;;;1.63;1.40;;;16.50;72.40;;;;;;5052157;28;20539;-44
2021/05/11 07:17:50;;;;;;;1.50;1.40;;;16.60;72.50;;;;;;5051195;28;20045;-46
2021/05/11 07:20:17;;;;;;;1.20;1.10;;;16.50;72.50;;;;;;5040235;28;20044;-50
2021/05/11 07:22:42;;;;;;;1.63;1.40;;;16.50;72.40;;;;;;5036226;28;20056;-49
2021/05/11 07:25:12;;;;;;;1.98;1.38;;;16.50;72.50;;;;;;5042158;28;20049;-44
2021/05/11 07:28:15;;;;;;;1.67;1.33;;;16.50;72.50;;;;;;5051674;28;20045;-45
2021/05/11 07:30:38;;;;;;;2.75;1.50;;;16.50;72.50;;;;;;5051753;28;20505;-46
2021/05/11 07:33:06;;;;;;;1.35;1.10;;;16.50;72.50;;;;;;5051745;28;20496;-46
2021/05/11 07:35:32;;;;;;;1.40;1.10;;;16.60;72.50;;;;;;5051902;28;20056;-44
2021/05/11 07:37:58;;;;;;;1.80;1.30;;;16.50;72.50;;;;;;5051513;28;20041;-44
2021/05/11 07:40:24;;;;;;;1.50;1.40;;;16.50;72.50;;;;;;5051427;28;20057;-45
2021/05/11 07:42:50;;;;;;;1.45;1.23;;;16.50;72.50;;;;;;5049473;28;20064;-45
2021/05/11 08:17:38;;;;;;;1.30;1.00;;;16.50;72.50;;;;;;4951605;29;20051;-49
2021/05/11 08:28:08;;;;;;;2.77;1.67;;;16.50;72.50;;;;;;5055140;28;20051;-49
2021/05/11 08:30:34;;;;;;;2.28;1.35;;;16.60;72.60;;;;;;5039528;28;20055;-49
2021/05/11 08:33:00;;;;;;;1.38;1.27;;;16.50;73.20;;;;;;5055284;28;20489;-44
2021/05/11 08:35:26;;;;;;;1.08;0.98;;;16.50;72.50;;;;;;5055253;28;20048;-49
2021/05/11 08:37:52;;;;;;;1.77;1.27;;;16.50;72.50;;;;;;5043849;28;20175;-45
2021/05/11 08:40:18;;;;;;;1.77;1.30;;;16.60;72.60;;;;;;5049712;28;20068;-44
2021/05/11 08:42:43;;;;;;;2.13;1.40;;;16.50;72.60;;;;;;5030903;28;20456;-45
2021/05/11 08:45:12;;;;;;;1.45;1.23;;;16.50;72.60;;;;;;5030946;28;20203;-50
2021/05/11 08:47:49;;;;;;;1.50;1.30;;;16.50;72.60;;;;;;5030762;28;20057;-47
2021/05/11 08:50:22;;;;;;;1.90;1.40;;;16.60;72.70;;;;;;5030056;28;20478;-46
2021/05/11 08:53:02;;;;;;;1.17;1.00;;;16.60;72.60;;;;;;5030795;28;20083;-48
2021/05/11 09:07:16;;;;;;;3.30;1.48;;;16.50;72.60;;;;;;5030525;28;20064;-51
2021/05/11 09:13:55;;;;;;;1.35;1.25;;;16.60;72.60;;;;;;5029857;28;20068;-46
2021/05/11 09:27:08;;;;;;;1.60;1.50;;;16.50;72.60;;;;;;4929815;29;19950;-43
2021/05/11 10:49:27;;;;;;;1.17;1.00;;;16.60;72.70;;;;;;5030957;28;20095;-43
2021/05/11 10:52:13;;;;;;;1.33;0.90;;;16.60;72.70;;;;;;5048351;28;20481;-49
2021/05/11 10:55:00;;;;;;;2.60;1.00;;;16.70;73.40;;;;;;5052735;28;20389;-49
2021/05/11 10:57:31;;;;;;;1.40;1.20;;;16.60;72.70;;;;;;5051704;28;20056;-46
2021/05/11 11:05:00;;;;;;;1.60;1.00;;;16.70;72.70;;;;;;5043401;28;20500;-48
2021/05/11 11:07:40;;;;;;;1.42;1.10;;;16.70;72.70;;;;;;5052163;28;20402;-48
2021/05/11 11:10:08;;;;;;;1.23;0.88;;;16.70;72.70;;;;;;5042551;28;20566;-46
2021/05/11 11:12:42;;;;;;;1.27;1.15;;;16.60;72.60;;;;;;5050862;28;20052;-44
2021/05/11 11:15:17;;;;;;;1.33;0.90;;;16.70;72.70;;;;;;5052272;28;20045;-50
2021/05/11 11:17:47;;;;;;;1.60;1.17;;;16.70;72.70;;;;;;5051775;28;20041;-50
2021/05/11 11:20:14;;;;;;;1.15;1.05;;;16.70;72.70;;;;;;5051118;28;20051;-44
2021/05/11 11:25:26;;;;;;;1.40;1.30;;;16.70;72.70;;;;;;5049165;28;20045;-48
2021/05/11 11:27:52;;;;;;;2.15;1.08;;;16.70;72.70;;;;;;5031373;28;20401;-47
2021/05/11 11:30:18;;;;;;;1.10;1.00;;;16.60;72.70;;;;;;5032670;28;20054;-47
2021/05/11 11:32:45;;;;;;;1.33;1.17;;;16.70;72.70;;;;;;5031917;28;20444;-43
2021/05/11 11:35:12;;;;;;;0.85;0.85;;;16.60;72.60;;;;;;5031423;28;20065;-49
2021/05/11 11:37:39;;;;;;;1.20;0.90;;;16.70;72.70;;;;;;5032284;28;20126;-46
2021/05/11 11:40:08;;;;;;;1.08;0.90;;;16.70;72.70;;;;;;5042500;28;20061;-48
2021/05/11 11:42:40;;;;;;;1.48;1.00;;;16.70;72.70;;;;;;5050473;28;20560;-46
2021/05/11 11:45:30;;;;;;;1.05;0.93;;;16.70;72.70;;;;;;5051680;28;20037;-46
2021/05/11 11:48:03;;;;;;;1.13;1.00;;;16.70;72.70;;;;;;4969738;28;20051;-45
2021/05/11 11:50:34;;;;;;;1.45;1.00;;;16.70;72.70;;;;;;4959334;28;20455;-46
2021/05/11 11:53:07;;;;;;;1.25;1.17;;;16.70;72.70;;;;;;4968020;28;20415;-48
2021/05/11 11:55:55;;;;;;;1.90;1.10;;;16.70;72.70;;;;;;4970754;28;20495;-50
2021/05/11 11:58:23;;;;;;;1.02;0.88;;;16.70;72.70;;;;;;4969247;28;20625;-44
2021/05/11 12:00:48;;;;;;;1.08;0.98;;;16.80;72.70;;;;;;4973349;28;20122;-47
2021/05/11 12:03:17;;;;;;;1.02;0.77;;;16.80;72.70;;;;;;4973779;28;20170;-46
2021/05/11 12:05:52;;;;;;;1.17;1.00;;;16.70;72.60;;;;;;4973055;28;20149;-48
2021/05/11 12:08:23;;;;;;;;;;;16.80;72.70;;;;;;4974945;28;20051;-46
2021/05/11 12:10:55;;;;;;;1.50;1.10;;;16.80;72.70;;;;;;4967778;28;19922;-45
2021/05/11 12:13:23;;;;;;;0.90;0.90;;;16.70;72.60;;;;;;4978813;28;20054;-45
2021/05/11 12:16:10;;;;;;;0.85;0.85;;;16.80;72.70;;;;;;4970972;28;20490;-48
2021/05/11 12:18:37;;;;;;;1.00;0.90;;;16.80;72.70;;;;;;4971846;28;20055;-48
2021/05/11 12:21:05;;;;;;;1.00;0.90;;;16.80;72.60;;;;;;4972136;28;20051;-46
2021/05/11 12:23:32;;;;;;;1.00;0.90;;;16.80;72.60;;;;;;4973521;28;20097;-48
2021/05/11 12:26:00;;;;;;;0.95;0.93;;;16.80;72.60;;;;;;5045084;28;20060;-44
2021/05/11 12:28:36;;;;;;;1.23;1.13;;;16.80;72.60;;;;;;5053417;28;20049;-46
2021/05/11 12:31:07;;;;;;;0.90;0.90;;;16.80;72.60;;;;;;5053880;28;20059;-44
2021/05/11 12:33:42;;;;;;;1.20;0.93;;;16.80;72.60;;;;;;5053614;28;20041;-45
2021/05/11 12:36:25;;;;;;;1.02;0.80;;;16.80;72.60;;;;;;5053991;28;20049;-50
2021/05/11 12:39:13;;;;;;;1.13;1.02;;;16.80;72.60;;;;;;5054447;28;20132;-47
2021/05/11 12:41:39;;;;;;;1.10;0.90;;;16.80;72.50;;;;;;5053362;28;20464;-48
2021/05/11 12:44:05;;;;;;;1.77;1.08;;;16.80;72.50;;;;;;5054273;28;20049;-45
2021/05/11 12:46:36;;;;;;;0.88;0.88;;;16.80;72.50;;;;;;5053688;28;20148;-45
2021/05/11 12:49:05;;;;;;;0.88;0.70;;;16.80;72.50;;;;;;5052571;28;20044;-41
2021/05/11 12:51:33;;;;;;;1.02;0.88;;;16.80;72.50;;;;;;5053823;28;20479;-41
2021/05/11 12:54:02;;;;;;;1.10;1.00;;;16.80;72.50;;;;;;5053877;28;20053;-44
2021/05/11 12:57:20;;;;;;;1.27;1.10;;;16.80;72.50;;;;;;5050423;28;20536;-44
2021/05/11 12:59:38;;;;;;;1.13;1.02;;;16.80;72.50;;;;;;5045379;28;20049;-43
2021/05/11 13:25:56;;;;;;;1.08;0.90;;;16.90;72.50;;;;;;5053159;28;20412;-47
2021/05/11 13:28:38;;;;;;;1.33;0.90;;;16.90;72.40;;;;;;5053352;28;20057;-47
2021/05/11 13:36:13;;;;;;;1.23;0.90;;;16.80;72.40;;;;;;5050568;28;20041;-45
2021/05/11 13:38:39;;;;;;;0.93;0.80;;;16.90;72.40;;;;;;5053592;28;20175;-44
2021/05/11 13:41:05;;;;;;;0.82;0.82;;;16.90;72.40;;;;;;5052645;28;20142;-46
2021/05/11 13:43:31;;;;;;;0.80;0.80;;;16.90;72.50;;;;;;5051765;28;20042;-46
2021/05/11 13:45:57;;;;;;;1.23;0.95;;;17.00;72.50;;;;;;5053265;28;20050;-48
2021/05/11 13:48:25;;;;;;;0.70;0.70;;;16.90;72.40;;;;;;5053405;28;20049;-46
2021/05/11 13:53:28;;;;;;;0.70;0.70;;;17.00;72.40;;;;;;5047187;28;20056;-45
2021/05/11 14:03:48;;;;;;;1.02;0.88;;;16.90;72.40;;;;;;5052222;28;20507;-46
2021/05/11 14:06:14;;;;;;;1.00;0.90;;;16.90;72.40;;;;;;5052270;28;20037;-45
2021/05/11 14:08:40;;;;;;;0.95;0.88;;;16.90;72.40;;;;;;5053493;28;20064;-44
2021/05/11 14:11:06;;;;;;;1.10;1.00;;;16.90;72.40;;;;;;5051596;28;20053;-45
2021/05/11 14:13:32;;;;;;;0.80;0.80;;;16.90;72.40;;;;;;5052288;28;20041;-45
2021/05/11 14:15:58;;;;;;;0.90;0.90;;;16.90;72.40;;;;;;5052973;28;20051;-44
2021/05/11 14:18:24;;;;;;;0.93;0.93;;;16.90;72.40;;;;;;5051185;28;20045;-44
2021/05/11 14:20:50;;;;;;;1.20;0.90;;;16.90;72.40;;;;;;5052388;28;20044;-48
2021/05/11 14:23:16;;;;;;;1.95;0.80;;;16.90;72.40;;;;;;5051498;28;20350;-47
2021/05/11 14:25:42;;;;;;;1.13;0.80;;;16.90;72.30;;;;;;5052291;28;20044;-47
2021/05/11 14:28:07;;;;;;;1.08;0.98;;;16.90;72.40;;;;;;5044738;28;20049;-48
2021/05/11 14:30:33;;;;;;;0.85;0.85;;;16.90;72.40;;;;;;5043060;28;20046;-49
2021/05/11 14:32:59;;;;;;;0.90;0.90;;;16.90;72.30;;;;;;5042890;28;20045;-42
2021/05/11 14:35:25;;;;;;;0.80;0.80;;;16.90;72.30;;;;;;5048399;28;20116;-45
2021/05/11 14:37:50;;;;;;;0.80;0.80;;;16.80;72.30;;;;;;5051800;28;20079;-46
2021/05/11 14:40:16;;;;;;;1.08;1.00;;;16.90;72.30;;;;;;5052026;28;20128;-47
2021/05/11 14:42:43;;;;;;;1.25;1.00;;;16.90;72.30;;;;;;5052435;28;20045;-46
2021/05/11 14:45:10;;;;;;;1.33;1.00;;;16.90;72.30;;;;;;5052442;28;20114;-47
2021/05/11 14:47:35;;;;;;;1.27;0.70;;;16.90;72.30;;;;;;5051786;28;20120;-47
2021/05/11 14:50:01;;;;;;;1.10;1.00;;;16.90;72.30;;;;;;5050768;28;20127;-45
2021/05/11 14:52:28;;;;;;;1.00;0.88;;;16.90;72.30;;;;;;5051376;28;20198;-44
2021/05/11 14:54:53;;;;;;;1.15;1.05;;;16.90;72.30;;;;;;5052431;28;20045;-48
2021/05/11 14:57:20;;;;;;;1.30;1.02;;;16.90;72.30;;;;;;5052418;28;20053;-45
2021/05/11 14:59:45;;;;;;;0.70;0.70;;;16.90;73.00;;;;;;5051880;28;20041;-46
2021/05/11 15:02:14;;;;;;;1.00;1.00;;;17.00;72.40;;;;;;5052454;28;20087;-46
2021/05/11 15:04:43;;;;;;;0.90;0.90;;;16.90;72.30;;;;;;5052026;28;20049;-48
2021/05/11 15:07:08;;;;;;;1.13;1.00;;;17.00;72.40;;;;;;5051926;28;20136;-46
2021/05/11 15:09:34;;;;;;;1.00;0.88;;;16.90;72.30;;;;;;5051929;28;20075;-45
2021/05/11 15:12:00;;;;;;;1.08;1.00;;;16.90;72.30;;;;;;5051841;28;20102;-45
2021/05/11 15:14:25;;;;;;;1.08;1.00;;;16.90;72.30;;;;;;5051891;28;20049;-46
2021/05/11 15:16:58;;;;;;;0.75;0.75;;;17.00;72.40;;;;;;5052281;28;20546;-44
2021/05/11 15:19:24;;;;;;;1.55;1.08;;;16.90;72.30;;;;;;5051981;28;20048;-45
2021/05/11 15:21:50;;;;;;;0.90;0.90;;;17.00;72.30;;;;;;5051866;28;20072;-44
2021/05/11 15:24:16;;;;;;;0.90;0.90;;;16.90;72.20;;;;;;5051064;28;20338;-43
2021/05/11 15:26:41;;;;;;;0.88;0.88;;;17.00;72.30;;;;;;5045973;28;20048;-45
2021/05/11 15:29:07;;;;;;;0.80;0.80;;;16.90;72.30;;;;;;5042266;28;20056;-45
2021/05/11 15:31:33;;;;;;;1.15;1.05;;;16.90;72.20;;;;;;5040864;28;20038;-43
2021/05/11 15:33:59;;;;;;;1.08;0.98;;;17.00;72.30;;;;;;5044839;28;20047;-38
2021/05/11 15:36:25;;;;;;;1.60;1.10;;;16.90;72.20;;;;;;5044189;28;20373;-38
2021/05/11 15:38:51;;;;;;;0.80;0.80;;;16.90;72.20;;;;;;5042259;28;20428;-39
2021/05/11 15:41:16;;;;;;;1.08;0.90;;;16.90;72.30;;;;;;5045508;28;20563;-42
2021/05/11 15:43:42;;;;;;;0.80;0.80;;;17.00;72.30;;;;;;5052080;28;20041;-37
2021/05/11 15:46:08;;;;;;;1.38;1.27;;;16.90;72.20;;;;;;5052384;28;20051;-35
2021/05/11 15:48:34;;;;;;;0.80;0.75;;;16.90;72.20;;;;;;5052003;28;20053;-38
2021/05/11 15:50:59;;;;;;;1.23;0.90;;;16.80;72.20;;;;;;5051386;28;20058;-46
2021/05/11 15:53:25;;;;;;;0.80;0.80;;;17.00;72.30;;;;;;5051417;28;20391;-38
2021/05/11 15:55:51;;;;;;;0.73;0.73;;;16.80;72.20;;;;;;5051693;28;20049;-38
2021/05/11 15:58:18;;;;;;;0.98;0.70;;;17.00;72.30;;;;;;5052018;28;20054;-39
2021/05/11 16:00:49;;;;;;;0.88;0.88;;;16.90;72.20;;;;;;5051503;28;20136;-40
2021/05/11 16:03:15;;;;;;;1.00;0.90;;;17.00;72.30;;;;;;5050992;28;20045;-42
2021/05/11 16:05:40;;;;;;;0.70;0.70;;;16.90;72.20;;;;;;5051379;28;20061;-43
2021/05/11 16:08:12;;;;;;;1.00;0.82;;;16.90;72.20;;;;;;5051594;28;20106;-38
2021/05/11 16:10:42;;;;;;;0.73;0.73;;;16.90;72.20;;;;;;5051231;28;20069;-41
2021/05/11 16:13:09;;;;;;;0.60;0.60;;;16.90;72.20;;;;;;5051155;28;20490;-39
2021/05/11 16:15:34;;;;;;;0.85;0.85;;;16.90;72.20;;;;;;5051226;28;20044;-41
2021/05/11 16:18:00;;;;;;;0.80;0.75;;;17.00;72.30;;;;;;5051283;28;20053;-43
2021/05/11 16:20:26;;;;;;;0.60;0.60;;;17.00;72.30;;;;;;5051529;28;20056;-43
2021/05/11 16:22:52;;;;;;;1.08;0.98;;;16.90;72.20;;;;;;5051009;28;20530;-45
2021/05/11 16:25:19;;;;;;;0.68;0.68;;;17.00;72.30;;;;;;5050864;28;20048;-46
2021/05/11 16:27:45;;;;;;;0.75;0.73;;;17.00;72.30;;;;;;5051307;28;20049;-40
2021/05/11 16:30:13;;;;;;;0.82;0.82;;;17.00;72.30;;;;;;5050986;28;20170;-44
2021/05/11 16:32:39;;;;;;;0.73;0.73;;;16.90;72.20;;;;;;5051176;28;20053;-41
2021/05/11 16:35:07;;;;;;;0.85;0.85;;;16.90;72.20;;;;;;5051172;28;20049;-43
2021/05/11 16:37:32;;;;;;;1.50;1.00;;;16.90;72.20;;;;;;5050780;28;20056;-39
2021/05/11 16:39:58;;;;;;;1.55;0.88;;;16.80;72.20;;;;;;5050749;28;20052;-46
2021/05/11 16:42:24;;;;;;;1.17;0.93;;;16.90;72.20;;;;;;5051091;28;20573;-39
2021/05/11 16:44:50;;;;;;;0.80;0.80;;;16.90;72.20;;;;;;5050522;28;20064;-41
2021/05/11 16:47:16;;;;;;;0.70;0.70;;;16.90;72.20;;;;;;5051113;28;20531;-39
2021/05/11 16:49:42;;;;;;;1.00;0.90;;;16.90;72.20;;;;;;5049478;28;20501;-45
2021/05/11 16:52:07;;;;;;;1.00;1.00;;;17.00;72.30;;;;;;5051352;28;20084;-44
2021/05/11 16:54:33;;;;;;;0.73;0.70;;;16.90;72.30;;;;;;5050388;28;20143;-44
2021/05/11 16:56:59;;;;;;;0.80;0.80;;;16.90;72.20;;;;;;5051135;28;20059;-39
2021/05/11 16:59:26;;;;;;;0.90;0.90;;;16.80;72.20;;;;;;5050875;28;20052;-42
2021/05/11 17:01:52;;;;;;;1.48;0.88;;;16.90;72.20;;;;;;5051136;28;20081;-39
2021/05/11 17:04:17;;;;;;;1.23;0.90;;;17.00;72.30;;;;;;5050795;28;20048;-43
2021/05/11 17:06:43;;;;;;;1.00;0.90;;;16.90;72.20;;;;;;5050452;28;20057;-41
2021/05/11 17:09:10;;;;;;;0.70;0.70;;;16.80;72.20;;;;;;5051125;28;20049;-43
2021/05/11 17:11:37;;;;;;;0.75;0.73;;;16.90;72.20;;;;;;5050041;28;20052;-41
2021/05/11 17:14:05;;;;;;;0.85;0.85;;;16.80;72.20;;;;;;5049905;28;20110;-42
2021/05/11 17:16:31;;;;;;;1.35;0.90;;;16.90;72.20;;;;;;5050152;28;20479;-42
2021/05/11 17:18:56;;;;;;;0.95;0.88;;;16.90;72.30;;;;;;5050892;28;20159;-40
2021/05/11 17:21:25;;;;;;;1.05;0.95;;;17.00;72.30;;;;;;5050257;28;20114;-38